createdAt,value
2022-07-29T00:00:05.671Z,74.37
2022-07-29T00:01:05.678Z,74.17
2022-07-29T00:02:05.633Z,75.04
2022-07-29T00:03:05.647Z,74.37
2022-07-29T00:04:05.685Z,74.27
2022-07-29T00:05:05.576Z,74.37
2022-07-29T00:06:05.557Z,74.27
2022-07-29T00:07:05.538Z,74.17
2022-07-29T00:08:09.353Z,74.08
2022-07-29T00:09:05.498Z,74.46
2022-07-29T00:10:05.480Z,73.98
2022-07-29T00:11:05.458Z,74.08
2022-07-29T00:12:05.440Z,74.17
2022-07-29T00:13:05.419Z,74.17
2022-07-29T00:14:05.402Z,74.08
2022-07-29T00:15:05.383Z,74.55
2022-07-29T00:16:05.507Z,74.46
2022-07-29T00:17:05.343Z,74.46
2022-07-29T00:18:05.323Z,74.46
2022-07-29T00:19:05.307Z,74.37
2022-07-29T00:20:05.287Z,74.46
2022-07-29T00:21:05.266Z,74.37
2022-07-29T00:22:05.247Z,74.65
2022-07-29T00:23:05.224Z,74.65
2022-07-29T00:24:05.208Z,74.55
2022-07-29T00:25:05.186Z,74.55
2022-07-29T00:26:05.168Z,74.65
2022-07-29T00:27:05.149Z,74.46
2022-07-29T00:28:05.131Z,74.46
2022-07-29T00:29:34.143Z,74.85
2022-07-29T00:30:05.162Z,75.04
2022-07-29T00:31:05.089Z,74.94
2022-07-29T00:32:05.129Z,74.65
2022-07-29T00:33:08.998Z,74.90
2022-07-29T00:34:05.016Z,74.62
2022-07-29T00:35:04.996Z,75.29
2022-07-29T00:36:04.980Z,75.48
2022-07-29T00:37:04.960Z,75.29
2022-07-29T00:38:04.936Z,75.57
2022-07-29T00:39:04.918Z,75.48
2022-07-29T00:40:04.898Z,75.57
2022-07-29T00:41:04.878Z,76.15
2022-07-29T00:42:04.861Z,76.06
2022-07-29T00:43:04.899Z,76.25
2022-07-29T00:44:04.824Z,76.64
2022-07-29T00:45:04.805Z,76.44
2022-07-29T00:46:04.782Z,76.54
2022-07-29T00:47:04.863Z,76.54
2022-07-29T00:48:04.754Z,76.54
2022-07-29T00:49:04.797Z,76.44
2022-07-29T00:50:04.704Z,76.64
2022-07-29T00:51:04.685Z,76.92
2022-07-29T00:52:04.663Z,77.01
2022-07-29T00:53:04.705Z,76.82
2022-07-29T00:54:04.639Z,77.01
2022-07-29T00:55:08.479Z,76.92
2022-07-29T00:56:04.587Z,76.92
2022-07-29T00:57:04.568Z,76.98
2022-07-29T00:58:04.650Z,76.98
2022-07-29T00:59:04.530Z,76.69
2022-07-29T01:00:04.510Z,76.98
2022-07-29T01:01:04.529Z,77.17
2022-07-29T01:02:04.627Z,76.79
2022-07-29T01:03:04.716Z,76.88
2022-07-29T01:04:04.432Z,76.98
2022-07-29T01:05:04.413Z,76.69
2022-07-29T01:06:04.399Z,76.64
2022-07-29T01:07:04.375Z,76.73
2022-07-29T01:08:04.354Z,76.73
2022-07-29T01:09:04.334Z,76.69
2022-07-29T01:10:04.319Z,76.92
2022-07-29T01:11:04.295Z,76.31
2022-07-29T01:12:04.288Z,76.44
2022-07-29T01:13:04.255Z,76.73
2022-07-29T01:14:04.236Z,76.64
2022-07-29T01:15:04.217Z,76.44
2022-07-29T01:16:04.239Z,76.64
2022-07-29T01:17:04.183Z,76.73
2022-07-29T01:18:04.158Z,76.82
2022-07-29T01:19:04.138Z,77.21
2022-07-29T01:20:04.118Z,76.73
2022-07-29T01:21:04.099Z,76.54
2022-07-29T01:22:04.090Z,77.08
2022-07-29T01:23:04.070Z,76.88
2022-07-29T01:24:04.045Z,76.79
2022-07-29T01:25:04.027Z,76.79
2022-07-29T01:26:04.006Z,76.59
2022-07-29T01:27:03.990Z,76.98
2022-07-29T01:28:03.965Z,77.08
2022-07-29T01:29:06.701Z,77.08
2022-07-29T01:30:05.333Z,77.31
2022-07-29T01:31:03.998Z,76.69
2022-07-29T01:32:03.919Z,76.79
2022-07-29T01:33:03.866Z,76.98
2022-07-29T01:34:03.852Z,76.69
2022-07-29T01:35:03.829Z,76.92
2022-07-29T01:36:03.813Z,76.88
2022-07-29T01:37:03.790Z,76.98
2022-07-29T01:38:03.767Z,76.69
2022-07-29T01:39:03.748Z,76.88
2022-07-29T01:40:03.728Z,76.98
2022-07-29T01:41:03.712Z,76.98
2022-07-29T01:42:03.689Z,77.17
2022-07-29T01:43:03.673Z,76.98
2022-07-29T01:44:03.652Z,77.01
2022-07-29T01:45:03.645Z,76.73
2022-07-29T01:46:03.625Z,76.73
2022-07-29T01:47:03.628Z,76.40
2022-07-29T01:48:03.574Z,76.98
2022-07-29T01:49:03.615Z,76.82
2022-07-29T01:50:03.533Z,77.01
2022-07-29T01:51:03.512Z,76.59
2022-07-29T01:52:03.491Z,76.98
2022-07-29T01:53:03.473Z,76.98
2022-07-29T01:54:03.455Z,76.69
2022-07-29T01:55:03.433Z,76.44
2022-07-29T01:56:03.416Z,76.88
2022-07-29T01:57:03.397Z,76.88
2022-07-29T01:58:03.375Z,76.59
2022-07-29T01:59:03.357Z,76.79
2022-07-29T02:00:03.333Z,76.59
2022-07-29T02:01:03.320Z,76.69
2022-07-29T02:02:03.395Z,77.08
2022-07-29T02:03:03.278Z,76.79
2022-07-29T02:04:03.256Z,76.98
2022-07-29T02:05:03.326Z,76.98
2022-07-29T02:06:03.216Z,76.88
2022-07-29T02:07:03.201Z,77.65
2022-07-29T02:08:03.177Z,77.36
2022-07-29T02:09:03.158Z,77.46
2022-07-29T02:10:03.140Z,77.46
2022-07-29T02:11:03.119Z,77.56
2022-07-29T02:12:03.100Z,77.36
2022-07-29T02:13:03.081Z,77.17
2022-07-29T02:14:03.064Z,77.17
2022-07-29T02:15:03.048Z,77.46
2022-07-29T02:16:03.091Z,77.26
2022-07-29T02:17:03.004Z,77.46
2022-07-29T02:18:02.987Z,77.84
2022-07-29T02:19:02.961Z,77.84
2022-07-29T02:20:02.947Z,77.36
2022-07-29T02:21:02.923Z,77.65
2022-07-29T02:22:02.911Z,77.84
2022-07-29T02:23:02.889Z,77.75
2022-07-29T02:24:02.869Z,78.23
2022-07-29T02:25:03.769Z,77.94
2022-07-29T02:26:02.824Z,78.23
2022-07-29T02:27:02.805Z,78.23
2022-07-29T02:28:02.787Z,78.42
2022-07-29T02:29:02.767Z,78.13
2022-07-29T02:30:02.746Z,78.23
2022-07-29T02:31:02.784Z,78.42
2022-07-29T02:32:02.710Z,78.23
2022-07-29T02:33:02.690Z,78.23
2022-07-29T02:34:02.672Z,78.52
2022-07-29T02:35:02.649Z,78.57
2022-07-29T02:36:02.638Z,78.90
2022-07-29T02:37:02.610Z,79.24
2022-07-29T02:38:02.592Z,78.96
2022-07-29T02:39:02.571Z,78.90
2022-07-29T02:40:02.556Z,78.99
2022-07-29T02:41:02.536Z,78.80
2022-07-29T02:42:02.515Z,78.70
2022-07-29T02:43:02.490Z,78.67
2022-07-29T02:44:02.478Z,79.05
2022-07-29T02:45:02.453Z,79.14
2022-07-29T02:46:02.460Z,79.14
2022-07-29T02:47:02.473Z,79.44
2022-07-29T02:48:02.393Z,79.53
2022-07-29T02:49:02.474Z,79.38
2022-07-29T02:50:02.354Z,79.63
2022-07-29T02:51:02.336Z,79.96
2022-07-29T02:52:02.315Z,80.01
2022-07-29T02:53:02.294Z,79.57
2022-07-29T02:54:02.278Z,79.34
2022-07-29T02:55:02.255Z,79.05
2022-07-29T02:56:02.235Z,78.67
2022-07-29T02:57:02.218Z,78.57
2022-07-29T02:58:02.196Z,79.63
2022-07-29T02:59:02.175Z,79.67
2022-07-29T03:00:02.156Z,78.90
2022-07-29T03:01:02.141Z,79.34
2022-07-29T03:02:02.227Z,78.77
2022-07-29T03:03:02.096Z,78.86
2022-07-29T03:04:02.077Z,78.67
2022-07-29T03:05:02.114Z,78.67
2022-07-29T03:06:02.037Z,79.44
2022-07-29T03:07:02.018Z,79.05
2022-07-29T03:08:01.997Z,78.86
2022-07-29T03:09:01.979Z,78.47
2022-07-29T03:10:01.969Z,78.86
2022-07-29T03:11:01.940Z,78.77
2022-07-29T03:12:01.921Z,78.86
2022-07-29T03:13:01.902Z,79.14
2022-07-29T03:14:01.882Z,79.24
2022-07-29T03:15:01.861Z,79.28
2022-07-29T03:16:01.921Z,79.44
2022-07-29T03:17:01.823Z,79.44
2022-07-29T03:18:01.802Z,79.72
2022-07-29T03:19:01.793Z,79.38
2022-07-29T03:20:01.760Z,79.72
2022-07-29T03:21:01.742Z,79.34
2022-07-29T03:22:01.725Z,79.53
2022-07-29T03:23:01.701Z,79.82
2022-07-29T03:24:03.559Z,80.01
2022-07-29T03:25:01.666Z,79.91
2022-07-29T03:26:01.651Z,79.53
2022-07-29T03:27:01.632Z,80.01
2022-07-29T03:28:01.601Z,79.82
2022-07-29T03:29:01.582Z,79.72
2022-07-29T03:30:01.568Z,80.01
2022-07-29T03:31:01.599Z,80.49
2022-07-29T03:32:01.528Z,80.49
2022-07-29T03:33:01.508Z,80.49
2022-07-29T03:34:01.482Z,80.20
2022-07-29T03:35:01.477Z,79.82
2022-07-29T03:36:01.448Z,80.30
2022-07-29T03:37:01.427Z,80.11
2022-07-29T03:38:01.408Z,80.68
2022-07-29T03:39:01.385Z,80.01
2022-07-29T03:40:01.373Z,80.49
2022-07-29T03:41:01.347Z,79.82
2022-07-29T03:42:01.328Z,79.72
2022-07-29T03:43:01.308Z,79.82
2022-07-29T03:44:01.287Z,79.82
2022-07-29T03:45:01.269Z,80.49
2022-07-29T03:46:01.308Z,80.49
2022-07-29T03:47:01.228Z,80.01
2022-07-29T03:48:01.421Z,79.72
2022-07-29T03:49:01.278Z,80.01
2022-07-29T03:50:01.170Z,79.82
2022-07-29T03:51:01.156Z,79.63
2022-07-29T03:52:01.127Z,79.72
2022-07-29T03:53:01.108Z,80.01
2022-07-29T03:54:03.883Z,80.01
2022-07-29T03:55:01.069Z,80.01
2022-07-29T03:56:01.048Z,80.11
2022-07-29T03:57:01.032Z,80.01
2022-07-29T03:58:01.008Z,79.82
2022-07-29T03:59:00.993Z,80.11
2022-07-29T04:00:00.970Z,79.91
2022-07-29T04:01:00.949Z,80.01
2022-07-29T04:02:01.105Z,79.72
2022-07-29T04:03:00.996Z,79.24
2022-07-29T04:04:00.938Z,79.53
2022-07-29T04:05:00.871Z,79.05
2022-07-29T04:06:00.852Z,79.14
2022-07-29T04:07:00.831Z,79.14
2022-07-29T04:08:00.817Z,79.63
2022-07-29T04:09:00.791Z,79.34
2022-07-29T04:10:00.770Z,79.44
2022-07-29T04:11:00.752Z,79.44
2022-07-29T04:12:03.542Z,79.14
2022-07-29T04:13:00.717Z,79.63
2022-07-29T04:14:00.691Z,79.63
2022-07-29T04:15:00.686Z,79.53
2022-07-29T04:16:00.732Z,79.14
2022-07-29T04:17:00.632Z,79.05
2022-07-29T04:18:00.768Z,79.72
2022-07-29T04:19:00.596Z,80.01
2022-07-29T04:20:00.572Z,79.82
2022-07-29T04:21:00.554Z,80.01
2022-07-29T04:22:00.557Z,80.11
2022-07-29T04:23:00.515Z,80.01
2022-07-29T04:24:00.506Z,80.01
2022-07-29T04:25:03.960Z,79.82
2022-07-29T04:26:00.453Z,79.82
2022-07-29T04:27:00.435Z,80.11
2022-07-29T04:28:00.411Z,80.01
2022-07-29T04:29:00.394Z,79.63
2022-07-29T04:30:00.372Z,79.63
2022-07-29T04:31:00.399Z,79.82
2022-07-29T04:32:00.333Z,79.82
2022-07-29T04:33:00.315Z,80.01
2022-07-29T04:34:00.293Z,80.01
2022-07-29T04:35:00.275Z,79.14
2022-07-29T04:36:00.257Z,79.82
2022-07-29T04:37:00.239Z,79.24
2022-07-29T04:38:00.214Z,79.57
2022-07-29T04:39:00.201Z,79.05
2022-07-29T04:40:00.201Z,79.63
2022-07-29T04:41:00.158Z,79.24
2022-07-29T04:42:00.134Z,79.72
2022-07-29T04:43:00.116Z,79.19
2022-07-29T04:44:00.099Z,79.09
2022-07-29T04:45:01.333Z,79.47
2022-07-29T04:46:00.163Z,78.90
2022-07-29T04:47:00.035Z,78.99
2022-07-29T04:48:00.015Z,79.47
2022-07-29T04:49:00.152Z,78.80
2022-07-29T04:49:59.981Z,78.70
2022-07-29T04:50:59.955Z,79.38
2022-07-29T04:51:59.941Z,78.90
2022-07-29T04:52:59.919Z,79.28
2022-07-29T04:53:59.897Z,78.80
2022-07-29T04:54:59.878Z,78.90
2022-07-29T04:55:59.859Z,78.99
2022-07-29T04:56:59.836Z,78.80
2022-07-29T04:57:59.816Z,78.90
2022-07-29T04:58:59.795Z,78.90
2022-07-29T04:59:59.776Z,78.61
2022-07-29T05:00:59.757Z,78.61
2022-07-29T05:01:59.868Z,78.70
2022-07-29T05:02:59.780Z,78.90
2022-07-29T05:04:00.666Z,78.70
2022-07-29T05:04:59.683Z,78.90
2022-07-29T05:05:59.660Z,78.70
2022-07-29T05:06:59.636Z,79.09
2022-07-29T05:07:59.619Z,79.09
2022-07-29T05:08:59.598Z,79.57
2022-07-29T05:09:59.603Z,79.47
2022-07-29T05:11:11.339Z,79.38
2022-07-29T05:11:59.540Z,79.47
2022-07-29T05:12:59.522Z,78.99
2022-07-29T05:13:59.501Z,78.70
2022-07-29T05:14:59.481Z,78.80
2022-07-29T05:15:59.537Z,78.80
2022-07-29T05:16:59.442Z,78.90
2022-07-29T05:17:59.423Z,79.19
2022-07-29T05:18:59.398Z,78.90
2022-07-29T05:19:59.380Z,78.52
2022-07-29T05:20:59.360Z,78.99
2022-07-29T05:21:59.341Z,78.52
2022-07-29T05:22:59.319Z,78.32
2022-07-29T05:23:59.307Z,78.32
2022-07-29T05:24:59.281Z,78.52
2022-07-29T05:25:59.264Z,78.90
2022-07-29T05:26:59.246Z,78.42
2022-07-29T05:27:59.222Z,78.03
2022-07-29T05:28:59.202Z,78.13
2022-07-29T05:29:59.188Z,78.52
2022-07-29T05:30:59.221Z,78.52
2022-07-29T05:31:59.142Z,78.42
2022-07-29T05:32:59.122Z,78.61
2022-07-29T05:33:59.107Z,77.88
2022-07-29T05:34:59.082Z,77.11
2022-07-29T05:36:00.775Z,77.65
2022-07-29T05:36:59.045Z,77.40
2022-07-29T05:37:59.028Z,78.03
2022-07-29T05:38:59.004Z,77.94
2022-07-29T05:39:59.115Z,78.55
2022-07-29T05:40:58.963Z,78.17
2022-07-29T05:41:58.946Z,78.84
2022-07-29T05:42:58.926Z,79.71
2022-07-29T05:43:58.907Z,79.90
2022-07-29T05:44:58.885Z,80.19
2022-07-29T05:45:59.045Z,80.28
2022-07-29T05:46:58.876Z,79.80
2022-07-29T05:47:58.827Z,79.42
2022-07-29T05:48:58.874Z,79.32
2022-07-29T05:49:58.789Z,79.61
2022-07-29T05:50:58.773Z,79.80
2022-07-29T05:51:58.749Z,79.03
2022-07-29T05:52:58.729Z,79.71
2022-07-29T05:53:58.710Z,79.99
2022-07-29T05:54:58.689Z,79.61
2022-07-29T05:55:58.670Z,79.80
2022-07-29T05:56:58.650Z,79.80
2022-07-29T05:57:58.630Z,80.09
2022-07-29T05:58:58.614Z,80.76
2022-07-29T05:59:58.596Z,81.43
2022-07-29T06:00:58.674Z,81.53
2022-07-29T06:01:58.777Z,81.05
2022-07-29T06:02:58.530Z,81.15
2022-07-29T06:03:58.543Z,80.76
2022-07-29T06:04:58.526Z,81.15
2022-07-29T06:05:58.478Z,80.86
2022-07-29T06:06:58.458Z,80.96
2022-07-29T06:07:58.440Z,80.86
2022-07-29T06:08:58.413Z,80.86
2022-07-29T06:09:58.396Z,81.34
2022-07-29T06:10:58.374Z,82.10
2022-07-29T06:11:58.355Z,81.63
2022-07-29T06:12:58.341Z,81.53
2022-07-29T06:13:58.318Z,81.24
2022-07-29T06:14:58.300Z,82.20
2022-07-29T06:15:58.319Z,80.57
2022-07-29T06:16:58.262Z,80.96
2022-07-29T06:18:00.384Z,80.86
2022-07-29T06:18:58.224Z,80.66
2022-07-29T06:19:58.199Z,80.86
2022-07-29T06:20:58.178Z,81.15
2022-07-29T06:21:58.161Z,81.15
2022-07-29T06:22:58.148Z,81.82
2022-07-29T06:23:58.126Z,81.34
2022-07-29T06:24:58.101Z,81.53
2022-07-29T06:25:58.085Z,81.05
2022-07-29T06:26:58.060Z,80.86
2022-07-29T06:27:58.049Z,81.24
2022-07-29T06:28:58.029Z,81.63
2022-07-29T06:29:58.007Z,80.82
2022-07-29T06:30:58.034Z,80.82
2022-07-29T06:31:57.963Z,81.10
2022-07-29T06:32:57.945Z,81.40
2022-07-29T06:33:57.924Z,82.35
2022-07-29T06:35:24.400Z,82.35
2022-07-29T06:35:57.889Z,82.84
2022-07-29T06:36:57.865Z,83.31
2022-07-29T06:37:59.469Z,83.51
2022-07-29T06:38:57.823Z,84.08
2022-07-29T06:39:59.568Z,83.98
2022-07-29T06:40:57.787Z,84.18
2022-07-29T06:41:57.771Z,83.98
2022-07-29T06:42:57.751Z,83.89
2022-07-29T06:43:57.728Z,83.98
2022-07-29T06:44:57.707Z,84.08
2022-07-29T06:45:57.730Z,83.80
2022-07-29T06:46:57.674Z,84.47
2022-07-29T06:47:57.651Z,84.66
2022-07-29T06:48:57.651Z,84.75
2022-07-29T06:49:57.611Z,84.27
2022-07-29T06:50:57.586Z,85.04
2022-07-29T06:51:57.568Z,85.14
2022-07-29T06:52:57.544Z,85.71
2022-07-29T06:53:59.591Z,84.85
2022-07-29T06:54:57.508Z,85.04
2022-07-29T06:55:57.484Z,85.52
2022-07-29T06:56:57.466Z,85.24
2022-07-29T06:57:57.447Z,85.14
2022-07-29T06:58:57.432Z,84.95
2022-07-29T06:59:57.405Z,84.47
2022-07-29T07:00:57.402Z,84.18
2022-07-29T07:01:57.394Z,83.98
2022-07-29T07:02:57.438Z,83.80
2022-07-29T07:03:57.337Z,83.41
2022-07-29T07:04:57.308Z,83.31
2022-07-29T07:05:57.288Z,83.12
2022-07-29T07:06:57.267Z,82.64
2022-07-29T07:07:57.246Z,82.59
2022-07-29T07:08:57.627Z,82.87
2022-07-29T07:09:57.208Z,82.40
2022-07-29T07:10:57.188Z,82.40
2022-07-29T07:11:57.166Z,82.01
2022-07-29T07:12:57.147Z,82.01
2022-07-29T07:14:02.619Z,81.63
2022-07-29T07:14:57.105Z,82.20
2022-07-29T07:15:57.091Z,82.05
2022-07-29T07:16:57.195Z,81.86
2022-07-29T07:17:57.055Z,81.48
2022-07-29T07:18:57.028Z,81.19
2022-07-29T07:19:57.010Z,80.71
2022-07-29T07:20:56.988Z,80.90
2022-07-29T07:21:56.973Z,80.04
2022-07-29T07:22:56.950Z,79.36
2022-07-29T07:23:56.930Z,79.94
2022-07-29T07:24:56.909Z,79.17
2022-07-29T07:25:56.891Z,80.04
2022-07-29T07:26:56.869Z,79.98
2022-07-29T07:27:56.849Z,80.17
2022-07-29T07:28:56.837Z,79.30
2022-07-29T07:29:56.812Z,78.92
2022-07-29T07:30:56.790Z,78.83
2022-07-29T07:32:00.939Z,78.98
2022-07-29T07:32:56.758Z,78.59
2022-07-29T07:33:56.735Z,78.88
2022-07-29T07:34:56.712Z,78.78
2022-07-29T07:35:56.694Z,78.78
2022-07-29T07:36:56.674Z,78.98
2022-07-29T07:37:56.656Z,78.63
2022-07-29T07:38:56.634Z,78.98
2022-07-29T07:39:56.617Z,78.63
2022-07-29T07:40:56.597Z,78.73
2022-07-29T07:41:56.577Z,78.53
2022-07-29T07:42:56.557Z,78.30
2022-07-29T07:43:56.540Z,79.02
2022-07-29T07:45:12.685Z,78.30
2022-07-29T07:45:56.561Z,78.25
2022-07-29T07:46:56.477Z,78.30
2022-07-29T07:47:56.458Z,78.34
2022-07-29T07:48:56.512Z,79.02
2022-07-29T07:49:57.673Z,78.34
2022-07-29T07:50:56.398Z,78.50
2022-07-29T07:51:56.391Z,78.06
2022-07-29T07:52:56.361Z,78.53
2022-07-29T07:53:56.345Z,78.34
2022-07-29T07:54:56.326Z,78.25
2022-07-29T07:56:12.645Z,78.53
2022-07-29T07:56:56.283Z,78.44
2022-07-29T07:57:56.264Z,78.25
2022-07-29T07:58:56.243Z,79.02
2022-07-29T07:59:56.226Z,78.92
2022-07-29T08:00:56.324Z,78.73
2022-07-29T08:01:56.878Z,78.73
2022-07-29T08:02:56.234Z,79.17
2022-07-29T08:03:56.146Z,79.50
2022-07-29T08:04:56.130Z,79.79
2022-07-29T08:05:56.107Z,78.63
2022-07-29T08:06:56.092Z,79.21
2022-07-29T08:07:56.069Z,79.02
2022-07-29T08:08:56.470Z,79.30
2022-07-29T08:09:56.029Z,79.11
2022-07-29T08:10:56.010Z,78.73
2022-07-29T08:11:55.990Z,79.88
2022-07-29T08:12:55.970Z,79.79
2022-07-29T08:13:55.953Z,79.02
2022-07-29T08:14:55.932Z,79.69
2022-07-29T08:15:55.913Z,79.21
2022-07-29T08:16:56.005Z,78.53
2022-07-29T08:17:55.886Z,79.11
2022-07-29T08:18:55.854Z,78.73
2022-07-29T08:19:55.837Z,78.83
2022-07-29T08:20:55.818Z,79.21
2022-07-29T08:21:56.059Z,79.98
2022-07-29T08:22:55.775Z,79.98
2022-07-29T08:23:59.923Z,80.75
2022-07-29T08:24:55.803Z,79.79
2022-07-29T08:25:55.719Z,79.69
2022-07-29T08:26:55.699Z,79.88
2022-07-29T08:27:55.680Z,79.79
2022-07-29T08:28:55.661Z,80.27
2022-07-29T08:29:55.642Z,80.75
2022-07-29T08:30:57.723Z,80.65
2022-07-29T08:31:55.975Z,79.98
2022-07-29T08:32:56.246Z,80.84
2022-07-29T08:33:55.580Z,80.07
2022-07-29T08:34:55.548Z,80.55
2022-07-29T08:35:55.527Z,80.07
2022-07-29T08:36:55.506Z,80.36
2022-07-29T08:37:55.488Z,80.27
2022-07-29T08:38:55.467Z,80.07
2022-07-29T08:39:55.450Z,80.17
2022-07-29T08:40:55.439Z,80.46
2022-07-29T08:41:57.149Z,80.46
2022-07-29T08:42:55.394Z,81.23
2022-07-29T08:43:55.372Z,80.84
2022-07-29T08:44:55.351Z,80.65
2022-07-29T08:45:55.388Z,80.94
2022-07-29T08:46:55.310Z,80.84
2022-07-29T08:47:55.293Z,80.94
2022-07-29T08:48:55.314Z,80.36
2022-07-29T08:49:55.257Z,80.46
2022-07-29T08:50:55.233Z,80.55
2022-07-29T08:51:55.619Z,80.27
2022-07-29T08:52:59.634Z,79.79
2022-07-29T08:53:55.176Z,80.07
2022-07-29T08:54:55.154Z,80.11
2022-07-29T08:55:55.136Z,80.17
2022-07-29T08:56:55.115Z,79.44
2022-07-29T08:57:57.436Z,79.11
2022-07-29T08:58:55.076Z,79.98
2022-07-29T08:59:55.058Z,80.07
2022-07-29T09:00:55.400Z,80.11
2022-07-29T09:01:55.470Z,79.82
2022-07-29T09:02:54.998Z,80.21
2022-07-29T09:03:55.019Z,79.82
2022-07-29T09:04:54.961Z,80.88
2022-07-29T09:05:54.940Z,79.92
2022-07-29T09:06:54.921Z,80.30
2022-07-29T09:07:54.901Z,80.02
2022-07-29T09:08:54.883Z,80.88
2022-07-29T09:09:55.744Z,80.69
2022-07-29T09:10:54.847Z,80.11
2022-07-29T09:11:55.236Z,80.02
2022-07-29T09:12:57.711Z,79.98
2022-07-29T09:13:54.786Z,80.94
2022-07-29T09:14:54.768Z,81.65
2022-07-29T09:15:54.915Z,81.17
2022-07-29T09:16:54.831Z,81.07
2022-07-29T09:17:54.809Z,81.52
2022-07-29T09:18:54.694Z,80.94
2022-07-29T09:19:54.668Z,80.88
2022-07-29T09:20:54.652Z,81.13
2022-07-29T09:21:54.680Z,81.17
2022-07-29T09:22:54.666Z,81.46
2022-07-29T09:23:54.641Z,80.69
2022-07-29T09:24:54.575Z,80.88
2022-07-29T09:25:54.552Z,80.98
2022-07-29T09:26:54.956Z,80.98
2022-07-29T09:27:54.511Z,80.88
2022-07-29T09:28:54.494Z,80.02
2022-07-29T09:29:54.475Z,79.82
2022-07-29T09:30:54.468Z,80.50
2022-07-29T09:31:54.501Z,80.11
2022-07-29T09:32:54.422Z,80.92
2022-07-29T09:33:54.400Z,80.15
2022-07-29T09:34:58.251Z,79.96
2022-07-29T09:35:57.183Z,80.92
2022-07-29T09:36:54.649Z,80.35
2022-07-29T09:37:54.322Z,80.35
2022-07-29T09:38:54.302Z,79.77
2022-07-29T09:39:54.284Z,79.10
2022-07-29T09:40:54.272Z,79.90
2022-07-29T09:41:54.246Z,79.33
2022-07-29T09:42:54.232Z,78.56
2022-07-29T09:43:54.210Z,78.94
2022-07-29T09:44:54.188Z,78.65
2022-07-29T09:45:54.170Z,79.23
2022-07-29T09:46:54.424Z,79.23
2022-07-29T09:47:54.141Z,79.90
2022-07-29T09:48:54.154Z,80.00
2022-07-29T09:49:54.106Z,80.77
2022-07-29T09:50:54.073Z,81.06
2022-07-29T09:51:54.054Z,80.19
2022-07-29T09:52:54.039Z,78.85
2022-07-29T09:53:54.018Z,79.23
2022-07-29T09:54:53.999Z,79.23
2022-07-29T09:55:53.977Z,79.13
2022-07-29T09:56:54.277Z,80.14
2022-07-29T09:57:53.941Z,81.10
2022-07-29T09:58:53.923Z,80.43
2022-07-29T09:59:53.903Z,79.60
2022-07-29T10:00:53.982Z,79.02
2022-07-29T10:01:54.274Z,79.21
2022-07-29T10:02:53.917Z,78.63
2022-07-29T10:03:53.827Z,80.89
2022-07-29T10:04:53.810Z,81.43
2022-07-29T10:05:53.790Z,82.68
2022-07-29T10:06:53.771Z,82.97
2022-07-29T10:07:54.393Z,83.64
2022-07-29T10:08:53.737Z,83.07
2022-07-29T10:09:53.721Z,83.22
2022-07-29T10:10:53.697Z,83.03
2022-07-29T10:11:53.679Z,83.89
2022-07-29T10:12:53.663Z,84.28
2022-07-29T10:13:53.645Z,84.76
2022-07-29T10:14:53.625Z,83.51
2022-07-29T10:15:53.651Z,83.12
2022-07-29T10:16:53.588Z,83.99
2022-07-29T10:17:53.569Z,84.18
2022-07-29T10:18:53.553Z,84.18
2022-07-29T10:19:53.532Z,84.28
2022-07-29T10:20:53.526Z,84.28
2022-07-29T10:21:57.753Z,83.89
2022-07-29T10:22:54.164Z,83.75
2022-07-29T10:23:53.458Z,84.14
2022-07-29T10:24:53.442Z,84.53
2022-07-29T10:25:53.433Z,84.39
2022-07-29T10:26:53.403Z,84.87
2022-07-29T10:27:53.386Z,85.54
2022-07-29T10:28:53.368Z,84.77
2022-07-29T10:29:53.349Z,84.77
2022-07-29T10:30:53.334Z,85.64
2022-07-29T10:31:53.624Z,85.64
2022-07-29T10:32:54.322Z,86.79
2022-07-29T10:33:53.271Z,86.89
2022-07-29T10:34:53.258Z,87.81
2022-07-29T10:35:53.239Z,88.29
2022-07-29T10:36:53.217Z,88.67
2022-07-29T10:37:53.196Z,89.01
2022-07-29T10:38:53.178Z,88.73
2022-07-29T10:39:53.159Z,89.40
2022-07-29T10:40:53.143Z,89.69
2022-07-29T10:41:53.137Z,89.88
2022-07-29T10:42:53.103Z,89.21
2022-07-29T10:43:53.084Z,89.88
2022-07-29T10:44:53.072Z,90.55
2022-07-29T10:45:53.053Z,90.75
2022-07-29T10:46:53.316Z,91.42
2022-07-29T10:47:53.011Z,91.71
2022-07-29T10:48:53.025Z,92.67
2022-07-29T10:49:52.969Z,93.53
2022-07-29T10:50:52.951Z,93.63
2022-07-29T10:51:53.016Z,93.58
2022-07-29T10:52:52.914Z,95.03
2022-07-29T10:53:53.409Z,94.83
2022-07-29T10:54:52.873Z,95.84
2022-07-29T10:55:52.852Z,95.17
2022-07-29T10:56:52.833Z,93.73
2022-07-29T10:57:54.873Z,93.44
2022-07-29T10:58:52.906Z,93.34
2022-07-29T10:59:53.046Z,93.73
2022-07-29T11:00:52.777Z,92.96
2022-07-29T11:01:53.598Z,93.15
2022-07-29T11:02:52.850Z,92.76
2022-07-29T11:03:53.745Z,92.47
2022-07-29T11:04:52.680Z,93.73
2022-07-29T11:05:52.656Z,92.38
2022-07-29T11:06:52.643Z,92.38
2022-07-29T11:07:52.636Z,92.67
2022-07-29T11:08:52.600Z,92.67
2022-07-29T11:09:52.586Z,91.52
2022-07-29T11:10:52.566Z,91.61
2022-07-29T11:11:52.542Z,91.42
2022-07-29T11:12:52.525Z,91.99
2022-07-29T11:13:52.595Z,91.22
2022-07-29T11:14:52.484Z,91.42
2022-07-29T11:15:52.464Z,90.75
2022-07-29T11:16:52.446Z,90.75
2022-07-29T11:17:53.215Z,89.40
2022-07-29T11:18:52.406Z,89.88
2022-07-29T11:19:52.476Z,90.45
2022-07-29T11:20:52.369Z,89.88
2022-07-29T11:21:55.285Z,89.69
2022-07-29T11:22:52.334Z,89.50
2022-07-29T11:23:52.312Z,89.11
2022-07-29T11:24:52.289Z,89.59
2022-07-29T11:25:52.391Z,88.92
2022-07-29T11:26:52.250Z,88.06
2022-07-29T11:27:52.230Z,88.24
2022-07-29T11:28:52.219Z,88.73
2022-07-29T11:29:52.196Z,88.53
2022-07-29T11:30:52.172Z,88.63
2022-07-29T11:31:52.154Z,88.34
2022-07-29T11:32:52.134Z,89.11
2022-07-29T11:33:56.125Z,89.21
2022-07-29T11:34:52.097Z,88.82
2022-07-29T11:36:00.899Z,90.75
2022-07-29T11:36:52.068Z,91.32
2022-07-29T11:37:52.354Z,91.03
2022-07-29T11:38:52.017Z,91.52
2022-07-29T11:39:51.997Z,93.24
2022-07-29T11:40:51.979Z,91.52
2022-07-29T11:41:51.961Z,93.53
2022-07-29T11:42:52.408Z,94.78
2022-07-29T11:43:51.918Z,94.88
2022-07-29T11:44:51.902Z,95.65
2022-07-29T11:45:51.880Z,95.98
2022-07-29T11:46:51.866Z,96.75
2022-07-29T11:47:51.883Z,97.33
2022-07-29T11:49:51.805Z,98.48
2022-07-29T11:50:51.785Z,98.29
2022-07-29T11:51:51.765Z,99.99
2022-07-29T11:52:51.746Z,99.06
2022-07-29T11:53:52.544Z,99.99
2022-07-29T11:54:57.978Z,99.99
2022-07-29T11:55:52.139Z,99.99
2022-07-29T11:56:51.676Z,99.99
2022-07-29T11:58:03.704Z,99.99
2022-07-29T11:58:51.628Z,99.99
2022-07-29T11:59:51.611Z,99.99
2022-07-29T12:00:51.590Z,99.99
2022-07-29T12:01:51.572Z,99.99
2022-07-29T12:02:51.551Z,99.99
2022-07-29T12:03:51.576Z,99.99
2022-07-29T12:04:51.511Z,99.99
2022-07-29T12:05:51.868Z,99.99
2022-07-29T12:06:51.472Z,99.99
2022-07-29T12:07:02.108Z,98.96
2022-07-29T12:07:51.449Z,99.99
2022-07-29T12:08:51.436Z,99.99
2022-07-29T12:09:51.412Z,99.99
2022-07-29T12:10:51.399Z,99.99
2022-07-29T12:11:51.372Z,99.99
2022-07-29T12:12:51.353Z,99.99
2022-07-29T12:13:51.335Z,99.99
2022-07-29T12:14:51.325Z,99.99
2022-07-29T12:15:51.360Z,99.99
2022-07-29T12:16:51.350Z,99.92
2022-07-29T12:17:51.254Z,99.99
2022-07-29T12:18:51.246Z,99.92
2022-07-29T12:19:51.214Z,98.77
2022-07-29T12:20:51.196Z,98.58
2022-07-29T12:21:56.938Z,98.00
2022-07-29T12:22:51.155Z,98.86
2022-07-29T12:23:51.137Z,98.19
2022-07-29T12:24:51.139Z,97.62
2022-07-29T12:25:51.099Z,99.99
2022-07-29T12:26:51.079Z,99.06
2022-07-29T12:27:51.057Z,98.48
2022-07-29T12:28:51.040Z,98.77
2022-07-29T12:29:51.030Z,99.99
2022-07-29T12:30:51.703Z,98.91
2022-07-29T12:31:51.102Z,97.67
2022-07-29T12:32:50.960Z,97.33
2022-07-29T12:33:50.945Z,98.34
2022-07-29T12:34:50.920Z,99.01
2022-07-29T12:36:06.073Z,98.91
2022-07-29T12:36:50.900Z,99.30
2022-07-29T12:37:50.860Z,96.99
2022-07-29T12:38:50.841Z,98.24
2022-07-29T12:39:50.821Z,99.01
2022-07-29T12:40:50.808Z,98.63
2022-07-29T12:41:50.782Z,98.63
2022-07-29T12:42:50.765Z,99.98
2022-07-29T12:43:50.752Z,99.30
2022-07-29T12:44:50.732Z,98.82
2022-07-29T12:45:50.705Z,99.68
2022-07-29T12:46:50.749Z,99.99
2022-07-29T12:47:50.706Z,99.99
2022-07-29T12:48:50.711Z,99.99
2022-07-29T12:49:50.628Z,99.49
2022-07-29T12:50:50.607Z,98.77
2022-07-29T12:51:50.589Z,99.40